»·PEaware :: DCM206 KSFO-KPDX

DCM206 :: KSFO-KPDX

FLIGHT INFORMATION

Flight Status: Arrived
Operator:
DotCom
More flights by this operator :: More flights under this callsign
Pilot: Nick L. (7253)
Aircraft: AIRBUS A300B4-600
(A306)
More flights by this aircraft type
Origin: KSFO San Francisco Intl
United States
Destination: KPDX Portland Intl
United States
More flights between these airports :: More routes between these airports
Route: TRUKN2 GRTFL MACHU MOXEE TMBRS2
File this flight plan on PilotEdge
Remarks: RMK / SIMBRIEF
Altitude:
(Current/Filed)
36,000ft
Speed:
(Current/Filed)
461kts
Departed: 29-Jan-21 01:20 PM
Arrived: 29-Jan-21 02:44 PM
Distance/Time
Traveled:
478nm/1:23
Distance/Time
To Go:
Arrived

Flight Plot

Page will automatically refresh every two minutes.

Flight plan parsing failed; only flown route is shown


Map Options




Map Legend


Flown Route
Filed Route
Departure Airport
Arrival Airport
Navaid (VOR, NDB)
Fix

Horizontal Profiles

Position Reports

Time Latitude Longitude Heading Altitude Ground
Speed
29-Jan-21 12:54 37.628983 -122.381890 139 19ft 0kts
29-Jan-21 12:56 37.628983 -122.381890 139 19ft 0kts
29-Jan-21 12:57 37.628983 -122.381890 139 19ft 0kts
29-Jan-21 12:59 37.628983 -122.381890 139 19ft 0kts
29-Jan-21 12:59 37.628983 -122.381890 139 19ft 0kts
29-Jan-21 13:00 37.628982 -122.381889 139 19ft 0kts
29-Jan-21 13:01 37.628983 -122.381890 139 19ft 0kts
29-Jan-21 13:03 37.628983 -122.381890 139 19ft 0kts
29-Jan-21 13:04 37.628983 -122.381890 139 19ft 0kts
29-Jan-21 13:05 37.628983 -122.381890 139 19ft 0kts
29-Jan-21 13:06 37.628983 -122.381890 139 19ft 0kts
29-Jan-21 13:07 37.628983 -122.381890 139 19ft 0kts
29-Jan-21 13:08 37.628983 -122.381890 139 19ft 0kts
29-Jan-21 13:08 37.628982 -122.381890 139 19ft 0kts
29-Jan-21 13:09 37.628982 -122.381889 139 19ft 0kts
29-Jan-21 13:11 37.628980 -122.381887 139 19ft 0kts
29-Jan-21 13:11 37.628857 -122.381758 145 19ft 2kts
29-Jan-21 13:12 37.625697 -122.382397 121 26ft 8kts
29-Jan-21 13:13 37.623514 -122.377231 117 27ft 30kts
29-Jan-21 13:14 37.619612 -122.379389 226 35ft 20kts
29-Jan-21 13:15 37.613158 -122.381927 207 36ft 25kts
29-Jan-21 13:16 37.609370 -122.384662 204 36ft 12kts
29-Jan-21 13:17 37.608530 -122.384000 119 36ft 0kts
29-Jan-21 13:18 37.608080 -122.382891 90 35ft 3kts
29-Jan-21 13:19 37.625070 -122.371456 28 413ft 161kts
29-Jan-21 13:20 37.659252 -122.326844 56 2412ft 225kts
29-Jan-21 13:22 37.693759 -122.260349 57 5639ft 244kts
29-Jan-21 13:23 37.768502 -122.217910 358 9552ft 287kts
29-Jan-21 13:24 37.873078 -122.219657 357 12201ft 371kts
29-Jan-21 13:25 37.944507 -122.221359 356 14345ft 397kts
29-Jan-21 13:26 38.074992 -122.224611 354 18829ft 412kts
29-Jan-21 13:27 38.170695 -122.227054 353 21547ft 419kts
29-Jan-21 13:28 38.288150 -122.230096 352 23851ft 425kts
29-Jan-21 13:29 38.444963 -122.240184 348 25325ft 424kts
29-Jan-21 13:30 38.523278 -122.248363 348 25648ft 424kts
29-Jan-21 13:31 38.640707 -122.260626 348 26124ft 424kts
29-Jan-21 13:32 38.758255 -122.272908 348 26592ft 423kts
29-Jan-21 13:33 38.875181 -122.285141 348 27046ft 422kts
29-Jan-21 13:34 38.992840 -122.297509 347 27492ft 428kts
29-Jan-21 13:35 39.152803 -122.314353 347 28307ft 432kts
29-Jan-21 13:36 39.231641 -122.322607 347 29400ft 425kts
29-Jan-21 13:37 39.346053 -122.334516 347 32201ft 401kts
29-Jan-21 13:38 39.470124 -122.347541 347 35826ft 379kts
29-Jan-21 13:39 39.558457 -122.357045 347 36018ft 384kts
29-Jan-21 13:40 39.664365 -122.368404 348 36005ft 384kts
29-Jan-21 13:41 39.788580 -122.381741 348 35996ft 384kts
29-Jan-21 13:42 39.874275 -122.390859 347 35974ft 363kts
29-Jan-21 13:43 39.973711 -122.401569 347 35958ft 356kts
29-Jan-21 13:44 40.071632 -122.412216 347 35947ft 354kts
29-Jan-21 13:45 40.170253 -122.422951 347 36005ft 355kts
29-Jan-21 13:46 40.317311 -122.438981 347 35992ft 355kts
29-Jan-21 13:48 40.462136 -122.454815 347 35986ft 354kts
29-Jan-21 13:49 40.559880 -122.465556 347 35983ft 355kts
29-Jan-21 13:50 40.658286 -122.476394 347 35981ft 355kts
29-Jan-21 13:51 40.756470 -122.487221 347 35977ft 355kts
29-Jan-21 13:52 40.854732 -122.498115 347 35977ft 355kts
29-Jan-21 13:53 40.952763 -122.509001 347 35974ft 354kts
29-Jan-21 13:54 41.052073 -122.520101 347 35959ft 360kts
29-Jan-21 13:55 41.153053 -122.531393 346 35949ft 366kts
29-Jan-21 13:56 41.254987 -122.542812 346 35929ft 367kts
29-Jan-21 13:57 41.356312 -122.554174 346 35923ft 365kts
29-Jan-21 13:58 41.457833 -122.565638 346 35915ft 367kts
29-Jan-21 13:59 41.559666 -122.575816 348 35916ft 368kts
29-Jan-21 14:00 41.662105 -122.582746 348 35918ft 370kts
29-Jan-21 14:01 41.764539 -122.589535 348 35911ft 369kts
29-Jan-21 14:02 41.867019 -122.596349 348 35910ft 368kts
29-Jan-21 14:03 41.969492 -122.603121 348 35910ft 369kts
29-Jan-21 14:04 42.071555 -122.609830 348 35910ft 368kts
29-Jan-21 14:05 42.173701 -122.616583 348 35929ft 367kts
29-Jan-21 14:06 42.276035 -122.623289 347 35922ft 369kts
29-Jan-21 14:07 42.377823 -122.630019 347 35915ft 365kts
29-Jan-21 14:08 42.479329 -122.636794 347 35916ft 366kts
29-Jan-21 14:09 42.580862 -122.643604 347 35915ft 367kts
29-Jan-21 14:10 42.682649 -122.650439 347 35920ft 367kts
29-Jan-21 14:11 42.784367 -122.657580 346 35931ft 369kts
29-Jan-21 14:12 42.887076 -122.664736 346 35923ft 370kts
29-Jan-21 14:13 42.995395 -122.672467 347 35654ft 401kts
29-Jan-21 14:13 43.084282 -122.678367 346 34868ft 391kts
29-Jan-21 14:14 43.194631 -122.686065 347 33927ft 400kts
29-Jan-21 14:15 43.306837 -122.693720 347 32987ft 409kts
29-Jan-21 14:16 43.421140 -122.701568 347 32020ft 416kts
29-Jan-21 14:17 43.529461 -122.708958 347 31124ft 418kts
29-Jan-21 14:18 43.647310 -122.717086 347 30151ft 427kts
29-Jan-21 14:19 43.766910 -122.725346 348 29176ft 436kts
29-Jan-21 14:20 43.888316 -122.733752 348 28196ft 441kts
29-Jan-21 14:21 44.008656 -122.742029 348 26590ft 437kts
29-Jan-21 14:22 44.138413 -122.751063 349 24021ft 432kts
29-Jan-21 14:23 44.259702 -122.741646 356 24076ft 450kts
29-Jan-21 14:24 44.383657 -122.729465 356 23460ft 435kts
29-Jan-21 14:25 44.499530 -122.717879 356 22171ft 399kts
29-Jan-21 14:26 44.602942 -122.707408 356 20111ft 361kts
29-Jan-21 14:27 44.703589 -122.697400 358 17124ft 365kts
29-Jan-21 14:28 44.803279 -122.687417 359 15774ft 353kts
29-Jan-21 14:29 44.900689 -122.677658 359 14225ft 348kts
29-Jan-21 14:30 44.991613 -122.668405 0 12898ft 297kts
29-Jan-21 14:31 45.073025 -122.660222 1 11672ft 304kts
29-Jan-21 14:32 45.157437 -122.651707 1 10344ft 303kts
29-Jan-21 14:33 45.241263 -122.643404 357 9120ft 297kts
29-Jan-21 14:34 45.317356 -122.678920 336 8006ft 283kts
29-Jan-21 14:35 45.390887 -122.719374 337 7002ft 282kts
29-Jan-21 14:36 45.463348 -122.759314 339 5997ft 275kts
29-Jan-21 14:37 45.528997 -122.795440 337 5167ft 224kts
29-Jan-21 14:38 45.586210 -122.826774 338 4188ft 215kts
29-Jan-21 14:39 45.639403 -122.813656 49 3010ft 212kts
29-Jan-21 14:40 45.645176 -122.733337 114 2031ft 207kts
29-Jan-21 14:41 45.611520 -122.664182 116 738ft 194kts
29-Jan-21 14:42 45.588011 -122.603313 115 26ft 127kts
29-Jan-21 14:43 45.582432 -122.593269 208 26ft 12kts
29-Jan-21 14:44 45.580044 -122.593384 123 26ft 0kts

Navigation Log

Ident Type
Flight plan parsing failed, navigation log unavailable